Terminal Aerodrome Forecast
Issued by NWS Twin Cities, MN

Home | Current Version | Previous Version | Text Only | Print | Product List | Glossary Off
Versions: 1 2 3 4 5 6 7 8 9 10 11 12 13 14 15

552
FTUS43 KMPX 150520
TAFEAU
TAF
KEAU 150520Z 1506/1606 02012G18KT 6SM -DZ BR OVC007
     FM150800 34014G22KT P6SM -RA OVC015
     FM151400 33013G18KT P6SM BKN025 OVC050
     FM152000 29009KT P6SM BKN050 OVC100
     FM160000 24004KT P6SM SCT250=

USA.gov is the U.S. government's official web portal to all federal, state and local government web resources and services.